createdAt,value
2018-11-27T00:02:08.280Z,76.37
2018-11-27T00:04:36.476Z,76.43
2018-11-27T00:07:04.708Z,76.60
2018-11-27T00:09:32.880Z,75.71
2018-11-27T00:12:01.095Z,76.44
2018-11-27T00:14:29.293Z,76.77
2018-11-27T00:16:57.929Z,76.32
2018-11-27T00:19:26.124Z,75.83
2018-11-27T00:21:54.313Z,76.05
2018-11-27T00:24:23.294Z,75.78
2018-11-27T00:26:51.446Z,75.72
2018-11-27T00:29:19.649Z,76.54
2018-11-27T00:31:47.946Z,76.39
2018-11-27T00:34:16.114Z,75.95
2018-11-27T00:36:44.369Z,75.85
2018-11-27T00:39:12.786Z,75.84
2018-11-27T00:41:42.174Z,75.88
2018-11-27T00:44:11.035Z,76.46
2018-11-27T00:46:39.788Z,75.85
2018-11-27T00:49:07.988Z,76.77
2018-11-27T00:51:36.183Z,76.48
2018-11-27T00:54:04.362Z,76.39
2018-11-27T00:56:32.552Z,76.53
2018-11-27T00:59:00.812Z,76.35
2018-11-27T01:01:28.961Z,75.91
2018-11-27T01:03:57.165Z,76.12
2018-11-27T01:06:25.341Z,75.71
2018-11-27T01:08:53.732Z,76.37
2018-11-27T01:11:21.944Z,76.47
2018-11-27T01:13:50.225Z,76.32
2018-11-27T01:16:18.429Z,75.71
2018-11-27T01:18:46.649Z,76.64
2018-11-27T01:21:14.781Z,76.28
2018-11-27T01:23:42.952Z,76.23
2018-11-27T01:26:11.163Z,76.61
2018-11-27T01:28:39.367Z,76.09
2018-11-27T01:31:07.521Z,75.95
2018-11-27T01:33:35.690Z,75.85
2018-11-27T01:36:03.896Z,76.61
2018-11-27T01:38:32.097Z,76.41
2018-11-27T01:41:00.302Z,75.84
2018-11-27T01:43:28.546Z,76.51
2018-11-27T01:45:56.818Z,76.44
2018-11-27T01:48:25.507Z,76.19
2018-11-27T01:50:53.660Z,75.93
2018-11-27T01:53:21.842Z,75.66
2018-11-27T01:55:50.066Z,75.88
2018-11-27T01:58:18.213Z,76.25
2018-11-27T02:00:46.437Z,76.04
2018-11-27T02:03:14.620Z,76.72
2018-11-27T02:05:43.549Z,76.68
2018-11-27T02:08:11.801Z,76.65
2018-11-27T02:10:39.976Z,75.98
2018-11-27T02:13:08.160Z,75.45
2018-11-27T02:15:36.930Z,75.21
2018-11-27T02:18:05.141Z,75.21
2018-11-27T02:20:33.431Z,76.06
2018-11-27T02:23:01.665Z,76.14
2018-11-27T02:25:30.286Z,74.97
2018-11-27T02:27:58.533Z,76.00
2018-11-27T02:30:27.581Z,75.78
2018-11-27T02:32:55.834Z,75.53
2018-11-27T02:35:24.988Z,75.72
2018-11-27T02:37:55.746Z,75.83
2018-11-27T02:40:23.960Z,75.37
2018-11-27T02:42:52.197Z,76.33
2018-11-27T02:45:22.236Z,76.36
2018-11-27T02:47:52.018Z,76.73
2018-11-27T02:50:21.244Z,76.45
2018-11-27T02:52:49.413Z,76.37
2018-11-27T02:55:21.089Z,75.91
2018-11-27T02:57:49.341Z,74.95
2018-11-27T03:00:27.121Z,75.11
2018-11-27T03:02:55.754Z,75.67
2018-11-27T03:05:26.101Z,74.98
2018-11-27T03:07:54.300Z,74.69
2018-11-27T03:10:22.491Z,74.76
2018-11-27T03:12:50.761Z,73.94
2018-11-27T03:15:19.055Z,74.42
2018-11-27T03:17:47.484Z,73.77
2018-11-27T03:20:16.718Z,74.19
2018-11-27T03:22:44.898Z,74.40
2018-11-27T03:25:19.085Z,74.90
2018-11-27T03:27:49.178Z,74.98
2018-11-27T03:30:21.295Z,75.27
2018-11-27T03:32:49.722Z,74.65
2018-11-27T03:35:19.757Z,74.59
2018-11-27T03:37:48.191Z,74.33
2018-11-27T03:40:19.288Z,74.39
2018-11-27T03:42:47.526Z,74.97
2018-11-27T03:45:16.219Z,74.56
2018-11-27T03:47:44.530Z,74.20
2018-11-27T03:50:15.035Z,74.58
2018-11-27T03:52:43.738Z,74.27
2018-11-27T03:55:12.641Z,75.15
2018-11-27T03:57:40.836Z,73.83
2018-11-27T04:00:20.310Z,73.95
2018-11-27T04:02:51.638Z,74.39
2018-11-27T04:05:19.971Z,74.77
2018-11-27T04:07:48.157Z,75.15
2018-11-27T04:10:18.469Z,74.45
2018-11-27T04:12:46.628Z,74.85
2018-11-27T04:15:15.046Z,75.14
2018-11-27T04:17:49.557Z,74.68
2018-11-27T04:20:17.861Z,74.67
2018-11-27T04:22:46.001Z,75.31
2018-11-27T04:25:16.097Z,75.64
2018-11-27T04:27:44.900Z,74.96
2018-11-27T04:30:16.106Z,75.38
2018-11-27T04:32:44.337Z,74.84
2018-11-27T04:35:13.488Z,75.28
2018-11-27T04:37:41.659Z,75.68
2018-11-27T04:40:11.110Z,74.76
2018-11-27T04:42:39.351Z,74.27
2018-11-27T04:45:11.241Z,74.20
2018-11-27T04:47:39.477Z,75.29
2018-11-27T04:50:09.734Z,74.19
2018-11-27T04:52:37.945Z,74.84
2018-11-27T04:55:07.534Z,74.67
2018-11-27T04:57:35.708Z,75.25
2018-11-27T05:00:04.162Z,75.19
2018-11-27T05:02:32.478Z,74.92
2018-11-27T05:05:00.687Z,74.82
2018-11-27T05:07:28.844Z,73.99
2018-11-27T05:09:57.045Z,75.00
2018-11-27T05:12:25.816Z,74.05
2018-11-27T05:14:53.997Z,74.47
2018-11-27T05:17:22.192Z,74.72
2018-11-27T05:19:50.384Z,74.34
2018-11-27T05:22:18.830Z,73.80
2018-11-27T05:24:47.034Z,74.25
2018-11-27T05:27:15.174Z,74.47
2018-11-27T05:29:43.350Z,73.66
2018-11-27T05:32:11.540Z,74.57
2018-11-27T05:34:39.797Z,74.11
2018-11-27T05:37:08.037Z,74.76
2018-11-27T05:39:36.178Z,74.05
2018-11-27T05:42:04.341Z,73.64
2018-11-27T05:44:32.543Z,73.90
2018-11-27T05:47:00.712Z,74.04
2018-11-27T05:49:28.869Z,74.12
2018-11-27T05:51:57.017Z,74.30
2018-11-27T05:54:25.186Z,73.87
2018-11-27T05:56:53.398Z,74.29
2018-11-27T05:59:21.604Z,74.45
2018-11-27T06:01:49.809Z,73.83
2018-11-27T06:04:17.981Z,74.54
2018-11-27T06:06:46.163Z,75.09
2018-11-27T06:09:14.400Z,74.99
2018-11-27T06:11:42.637Z,75.36
2018-11-27T06:14:10.786Z,75.91
2018-11-27T06:16:38.985Z,75.20
2018-11-27T06:19:07.229Z,75.40
2018-11-27T06:21:35.488Z,76.39
2018-11-27T06:24:03.664Z,75.73
2018-11-27T06:26:31.861Z,75.87
2018-11-27T06:29:00.051Z,76.02
2018-11-27T06:31:28.208Z,75.50
2018-11-27T06:33:56.394Z,76.05
2018-11-27T06:36:24.602Z,75.23
2018-11-27T06:38:52.829Z,75.54
2018-11-27T06:41:21.037Z,75.46
2018-11-27T06:43:49.190Z,75.20
2018-11-27T06:46:17.461Z,74.97
2018-11-27T06:48:45.628Z,75.21
2018-11-27T06:51:13.788Z,74.91
2018-11-27T06:53:41.976Z,74.82
2018-11-27T06:56:10.151Z,74.59
2018-11-27T06:58:38.337Z,74.44
2018-11-27T07:01:06.628Z,74.06
2018-11-27T07:03:34.865Z,74.45
2018-11-27T07:06:03.036Z,74.59
2018-11-27T07:08:31.217Z,74.11
2018-11-27T07:10:59.369Z,74.37
2018-11-27T07:13:27.587Z,73.66
2018-11-27T07:15:55.864Z,73.77
2018-11-27T07:18:24.016Z,73.64
2018-11-27T07:20:52.749Z,73.31
2018-11-27T07:23:21.001Z,73.06
2018-11-27T07:25:49.254Z,72.71
2018-11-27T07:28:17.445Z,72.72
2018-11-27T07:30:45.706Z,72.26
2018-11-27T07:33:13.868Z,72.34
2018-11-27T07:35:42.064Z,72.37
2018-11-27T07:38:10.316Z,72.48
2018-11-27T07:40:38.485Z,72.16
2018-11-27T07:43:08.501Z,72.21
2018-11-27T07:45:36.697Z,72.34
2018-11-27T07:48:05.368Z,72.51
2018-11-27T07:50:33.549Z,73.10
2018-11-27T07:53:01.720Z,73.46
2018-11-27T07:55:29.886Z,73.54
2018-11-27T07:57:58.056Z,73.51
2018-11-27T08:00:27.209Z,73.29
2018-11-27T08:02:57.394Z,72.91
2018-11-27T08:05:32.540Z,72.54
2018-11-27T08:08:00.781Z,72.28
2018-11-27T08:10:30.214Z,72.12
2018-11-27T08:12:58.529Z,72.28
2018-11-27T08:15:29.709Z,72.61
2018-11-27T08:17:57.943Z,72.91
2018-11-27T08:20:28.316Z,72.97
2018-11-27T08:22:56.524Z,72.50
2018-11-27T08:25:24.686Z,72.83
2018-11-27T08:27:52.846Z,72.27
2018-11-27T08:30:21.673Z,72.54
2018-11-27T08:32:50.096Z,71.54
2018-11-27T08:35:21.524Z,71.70
2018-11-27T08:37:50.747Z,71.90
2018-11-27T08:40:20.850Z,72.72
2018-11-27T08:42:49.049Z,72.15
2018-11-27T08:45:18.387Z,71.82
2018-11-27T08:47:47.329Z,72.07
2018-11-27T08:50:19.861Z,71.26
2018-11-27T08:52:50.069Z,70.80
2018-11-27T08:55:22.817Z,70.89
2018-11-27T08:57:51.512Z,70.81
2018-11-27T09:00:21.848Z,71.13
2018-11-27T09:02:50.054Z,70.98
2018-11-27T09:05:18.292Z,71.17
2018-11-27T09:07:46.848Z,71.81
2018-11-27T09:10:23.060Z,71.21
2018-11-27T09:12:51.300Z,70.85
2018-11-27T09:15:21.472Z,70.20
2018-11-27T09:17:52.652Z,70.29
2018-11-27T09:20:21.007Z,69.91
2018-11-27T09:22:49.133Z,69.95
2018-11-27T09:25:17.398Z,70.83
2018-11-27T09:27:45.671Z,70.29
2018-11-27T09:30:18.044Z,69.83
2018-11-27T09:32:46.230Z,70.72
2018-11-27T09:35:14.377Z,69.53
2018-11-27T09:37:42.564Z,69.83
2018-11-27T09:40:12.976Z,69.39
2018-11-27T09:42:41.270Z,70.04
2018-11-27T09:45:13.041Z,70.22
2018-11-27T09:47:41.696Z,69.99
2018-11-27T09:50:11.405Z,68.90
2018-11-27T09:52:39.647Z,69.44
2018-11-27T09:55:16.256Z,69.33
2018-11-27T09:57:44.571Z,69.47
2018-11-27T10:00:17.861Z,68.28
2018-11-27T10:02:46.097Z,69.37
2018-11-27T10:05:14.678Z,68.21
2018-11-27T10:07:42.962Z,68.57
2018-11-27T10:10:12.260Z,67.86
2018-11-27T10:12:40.438Z,68.63
2018-11-27T10:15:13.458Z,68.10
2018-11-27T10:17:41.753Z,67.69
2018-11-27T10:20:13.557Z,68.12
2018-11-27T10:22:41.743Z,67.74
2018-11-27T10:25:11.125Z,66.61
2018-11-27T10:27:39.392Z,67.18
2018-11-27T10:30:26.361Z,66.79
2018-11-27T10:32:55.758Z,66.72
2018-11-27T10:35:25.952Z,66.37
2018-11-27T10:37:54.136Z,66.36
2018-11-27T10:40:22.412Z,66.62
2018-11-27T10:42:50.850Z,66.26
2018-11-27T10:45:20.086Z,66.40
2018-11-27T10:47:49.324Z,66.24
2018-11-27T10:50:18.180Z,66.03
2018-11-27T10:52:48.521Z,66.09
2018-11-27T10:55:17.503Z,64.95
2018-11-27T10:57:46.475Z,65.15
2018-11-27T11:00:25.966Z,64.83
2018-11-27T11:02:59.594Z,64.73
2018-11-27T11:05:31.727Z,64.33
2018-11-27T11:07:59.983Z,64.38
2018-11-27T11:10:28.202Z,64.87
2018-11-27T11:12:56.415Z,65.98
2018-11-27T11:15:24.570Z,65.02
2018-11-27T11:17:52.741Z,64.95
2018-11-27T11:20:21.321Z,65.27
2018-11-27T11:22:49.557Z,65.63
2018-11-27T11:25:19.929Z,64.31
2018-11-27T11:27:50.891Z,64.79
2018-11-27T11:30:20.850Z,64.87
2018-11-27T11:32:49.040Z,63.87
2018-11-27T11:35:17.225Z,63.90
2018-11-27T11:37:45.395Z,63.58
2018-11-27T11:40:17.527Z,63.09
2018-11-27T11:42:45.669Z,62.78
2018-11-27T11:45:13.817Z,62.91
2018-11-27T11:47:42.269Z,62.26
2018-11-27T11:50:13.733Z,62.58
2018-11-27T11:52:45.339Z,61.94
2018-11-27T11:55:12.434Z,63.37
2018-11-27T11:57:40.573Z,63.27
2018-11-27T12:00:19.389Z,62.21
2018-11-27T12:02:47.617Z,62.32
2018-11-27T12:05:15.681Z,62.11
2018-11-27T12:07:43.838Z,61.83
2018-11-27T12:10:14.025Z,62.50
2018-11-27T12:12:42.968Z,62.89
2018-11-27T12:15:13.305Z,63.32
2018-11-27T12:17:41.757Z,62.58
2018-11-27T12:20:12.146Z,64.17
2018-11-27T12:22:41.178Z,64.97
2018-11-27T12:25:10.485Z,64.28
2018-11-27T12:27:38.701Z,62.96
2018-11-27T12:30:19.833Z,62.29
2018-11-27T12:32:48.030Z,63.15
2018-11-27T12:35:16.870Z,63.25
2018-11-27T12:37:45.050Z,63.61
2018-11-27T12:40:14.908Z,62.66
2018-11-27T12:42:43.709Z,62.18
2018-11-27T12:45:14.937Z,62.15
2018-11-27T12:47:43.347Z,62.96
2018-11-27T12:50:18.568Z,62.99
2018-11-27T12:52:46.716Z,62.95
2018-11-27T12:55:16.116Z,62.32
2018-11-27T12:57:44.325Z,61.45
2018-11-27T13:00:15.776Z,61.50
2018-11-27T13:02:43.947Z,61.83
2018-11-27T13:05:13.476Z,62.20
2018-11-27T13:07:41.805Z,62.20
2018-11-27T13:10:11.628Z,62.69
2018-11-27T13:12:40.005Z,63.57
2018-11-27T13:15:11.832Z,62.87
2018-11-27T13:17:40.727Z,62.64
2018-11-27T13:20:10.761Z,63.03
2018-11-27T13:22:39.240Z,63.22
2018-11-27T13:25:12.755Z,62.77
2018-11-27T13:27:40.919Z,63.17
2018-11-27T13:30:20.411Z,63.47
2018-11-27T13:32:52.462Z,62.49
2018-11-27T13:35:20.752Z,63.16
2018-11-27T13:37:48.956Z,63.85
2018-11-27T13:40:17.153Z,63.20
2018-11-27T13:42:45.352Z,63.77
2018-11-27T13:45:14.640Z,63.06
2018-11-27T13:47:43.120Z,62.46
2018-11-27T13:50:12.456Z,63.40
2018-11-27T13:52:40.717Z,62.78
2018-11-27T13:55:25.005Z,62.59
2018-11-27T13:57:53.202Z,62.70
2018-11-27T14:00:21.373Z,63.42
2018-11-27T14:02:52.050Z,63.15
2018-11-27T14:05:21.429Z,62.29
2018-11-27T14:07:49.588Z,61.14
2018-11-27T14:10:17.768Z,61.94
2018-11-27T14:12:45.945Z,62.00
2018-11-27T14:15:20.016Z,62.61
2018-11-27T14:17:48.438Z,62.50
2018-11-27T14:20:16.660Z,62.29
2018-11-27T14:22:46.043Z,62.63
2018-11-27T14:25:14.588Z,62.68
2018-11-27T14:27:42.982Z,62.93
2018-11-27T14:30:15.455Z,62.36
2018-11-27T14:32:43.827Z,62.55
2018-11-27T14:35:12.617Z,62.57
2018-11-27T14:37:40.833Z,62.10
2018-11-27T14:40:15.339Z,61.40
2018-11-27T14:42:43.618Z,61.68
2018-11-27T14:45:17.935Z,61.64
2018-11-27T14:47:47.434Z,61.25
2018-11-27T14:50:15.615Z,62.19
2018-11-27T14:52:43.862Z,61.05
2018-11-27T14:55:28.146Z,60.72
2018-11-27T14:57:56.393Z,60.13
2018-11-27T15:00:25.301Z,61.49
2018-11-27T15:02:53.709Z,61.48
2018-11-27T15:05:29.981Z,62.75
2018-11-27T15:07:58.130Z,62.65
2018-11-27T15:10:26.353Z,62.90
2018-11-27T15:12:54.646Z,62.69
2018-11-27T15:15:22.919Z,62.64
2018-11-27T15:17:51.080Z,62.99
2018-11-27T15:20:21.246Z,63.21
2018-11-27T15:22:49.422Z,62.40
2018-11-27T15:25:17.793Z,62.42
2018-11-27T15:27:46.188Z,62.82
2018-11-27T15:30:17.597Z,62.23
2018-11-27T15:32:45.970Z,63.53
2018-11-27T15:35:14.488Z,63.56
2018-11-27T15:37:42.831Z,64.23
2018-11-27T15:40:12.457Z,64.61
2018-11-27T15:42:41.316Z,64.78
2018-11-27T15:45:12.030Z,64.60
2018-11-27T15:47:40.257Z,64.34
2018-11-27T15:50:09.596Z,64.79
2018-11-27T15:52:37.791Z,64.67
2018-11-27T15:55:09.961Z,64.65
2018-11-27T15:57:38.173Z,64.47
2018-11-27T16:00:09.535Z,64.47
2018-11-27T16:02:37.749Z,65.20
2018-11-27T16:05:06.217Z,65.98
2018-11-27T16:07:34.530Z,66.32
2018-11-27T16:10:02.672Z,66.12
2018-11-27T16:12:30.840Z,65.72
2018-11-27T16:14:59.045Z,65.33
2018-11-27T16:17:27.189Z,66.48
2018-11-27T16:19:55.378Z,65.92
2018-11-27T16:22:23.577Z,65.81
2018-11-27T16:24:51.819Z,66.66
2018-11-27T16:27:19.941Z,67.45
2018-11-27T16:29:48.207Z,66.69
2018-11-27T16:32:16.402Z,67.42
2018-11-27T16:34:44.620Z,66.46
2018-11-27T16:37:12.798Z,67.41
2018-11-27T16:39:40.998Z,67.48
2018-11-27T16:42:09.140Z,67.50
2018-11-27T16:44:37.297Z,68.01
2018-11-27T16:47:05.695Z,67.82
2018-11-27T16:49:34.424Z,67.95
2018-11-27T16:52:02.582Z,68.00
2018-11-27T16:54:30.885Z,68.82
2018-11-27T16:56:59.105Z,68.01
2018-11-27T16:59:27.282Z,68.55
2018-11-27T17:01:55.557Z,68.48
2018-11-27T17:04:24.654Z,69.21
2018-11-27T17:06:52.868Z,68.27
2018-11-27T17:09:21.106Z,68.16
2018-11-27T17:11:49.257Z,67.77
2018-11-27T17:14:17.499Z,67.06
2018-11-27T17:16:45.761Z,66.75
2018-11-27T17:19:14.020Z,67.11
2018-11-27T17:21:42.287Z,66.81
2018-11-27T17:24:10.451Z,66.21
2018-11-27T17:26:38.633Z,66.69
2018-11-27T17:29:07.640Z,66.04
2018-11-27T17:31:35.930Z,66.29
2018-11-27T17:34:07.756Z,65.87
2018-11-27T17:36:36.241Z,66.36
2018-11-27T17:39:09.382Z,66.00
2018-11-27T17:41:37.542Z,66.05
2018-11-27T17:44:07.180Z,65.43
2018-11-27T17:46:35.325Z,65.52
2018-11-27T17:49:03.556Z,65.35
2018-11-27T17:51:31.711Z,64.70
2018-11-27T17:53:59.890Z,64.64
2018-11-27T17:56:28.093Z,64.62
2018-11-27T17:58:56.257Z,64.78
2018-11-27T18:01:24.431Z,64.77
2018-11-27T18:03:52.643Z,65.22
2018-11-27T18:06:20.890Z,65.12
2018-11-27T18:08:49.049Z,65.28
2018-11-27T18:11:17.245Z,65.07
2018-11-27T18:13:45.926Z,64.68
2018-11-27T18:16:14.830Z,64.92
2018-11-27T18:18:43.092Z,65.89
2018-11-27T18:21:11.232Z,65.12
2018-11-27T18:23:39.414Z,65.15
2018-11-27T18:26:07.594Z,65.23
2018-11-27T18:28:36.017Z,65.11
2018-11-27T18:31:04.288Z,65.20
2018-11-27T18:33:32.508Z,65.44
2018-11-27T18:36:00.657Z,65.01
2018-11-27T18:38:28.872Z,65.53
2018-11-27T18:40:57.269Z,65.62
2018-11-27T18:43:25.476Z,64.81
2018-11-27T18:45:53.682Z,65.49
2018-11-27T18:48:21.855Z,65.07
2018-11-27T18:50:50.106Z,65.69
2018-11-27T18:53:18.328Z,65.11
2018-11-27T18:55:46.529Z,65.42
2018-11-27T18:58:14.765Z,65.26
2018-11-27T19:00:42.971Z,65.42
2018-11-27T19:03:11.237Z,65.20
2018-11-27T19:05:39.513Z,65.08
2018-11-27T19:08:07.846Z,65.14
2018-11-27T19:10:36.096Z,65.08
2018-11-27T19:13:04.817Z,64.89
2018-11-27T19:15:38.478Z,64.89
2018-11-27T19:18:10.206Z,64.52
2018-11-27T19:20:38.486Z,64.69
2018-11-27T19:23:06.697Z,65.50
2018-11-27T19:25:34.942Z,64.31
2018-11-27T19:28:03.134Z,64.90
2018-11-27T19:30:32.382Z,65.18
2018-11-27T19:32:59.565Z,65.20
2018-11-27T19:35:27.829Z,64.83
2018-11-27T19:37:56.050Z,65.68
2018-11-27T19:40:24.434Z,64.60
2018-11-27T19:42:52.635Z,65.22
2018-11-27T19:45:24.415Z,65.42
2018-11-27T19:47:52.802Z,65.82
2018-11-27T19:50:21.097Z,65.83
2018-11-27T19:52:50.685Z,65.39
2018-11-27T19:55:19.296Z,65.91
2018-11-27T19:57:47.538Z,66.58
2018-11-27T20:00:17.207Z,65.87
2018-11-27T20:02:45.474Z,65.98
2018-11-27T20:05:15.126Z,66.11
2018-11-27T20:07:43.334Z,66.05
2018-11-27T20:10:14.280Z,65.84
2018-11-27T20:12:42.558Z,65.71
2018-11-27T20:15:18.944Z,65.65
2018-11-27T20:17:47.998Z,65.91
2018-11-27T20:20:17.938Z,65.66
2018-11-27T20:22:46.210Z,65.05
2018-11-27T20:25:16.286Z,65.18
2018-11-27T20:27:44.795Z,64.84
2018-11-27T20:30:14.750Z,65.07
2018-11-27T20:32:44.399Z,64.87
2018-11-27T20:35:13.846Z,65.72
2018-11-27T20:37:42.307Z,65.13
2018-11-27T20:40:11.934Z,65.01
2018-11-27T20:42:40.131Z,65.90
2018-11-27T20:45:19.306Z,65.21
2018-11-27T20:47:44.908Z,65.90
2018-11-27T20:50:15.745Z,65.40
2018-11-27T20:52:43.994Z,65.67
2018-11-27T20:55:12.400Z,66.06
2018-11-27T20:57:41.646Z,65.67
2018-11-27T21:00:14.622Z,65.84
2018-11-27T21:02:42.980Z,65.68
2018-11-27T21:05:11.390Z,65.69
2018-11-27T21:07:39.573Z,65.36
2018-11-27T21:10:09.847Z,65.32
2018-11-27T21:12:38.070Z,65.00
2018-11-27T21:15:11.326Z,65.25
2018-11-27T21:17:39.596Z,64.45
2018-11-27T21:20:10.079Z,64.82
2018-11-27T21:22:38.634Z,64.86
2018-11-27T21:25:10.744Z,64.77
2018-11-27T21:27:39.046Z,64.65
2018-11-27T21:30:16.457Z,64.73
2018-11-27T21:32:44.909Z,65.00
2018-11-27T21:35:14.403Z,65.28
2018-11-27T21:37:43.293Z,65.16
2018-11-27T21:40:13.409Z,64.54
2018-11-27T21:42:41.674Z,65.21
2018-11-27T21:45:11.597Z,65.03
2018-11-27T21:47:39.874Z,64.85
2018-11-27T21:50:10.154Z,64.99
2018-11-27T21:52:38.417Z,64.81
2018-11-27T21:55:09.867Z,65.16
2018-11-27T21:57:38.579Z,65.04
2018-11-27T22:00:13.082Z,65.26
2018-11-27T22:02:41.392Z,64.30
2018-11-27T22:05:10.239Z,64.80
2018-11-27T22:07:38.431Z,64.99
2018-11-27T22:10:10.608Z,64.20
2018-11-27T22:12:38.805Z,64.95
2018-11-27T22:15:10.399Z,64.38
2018-11-27T22:17:38.631Z,64.74
2018-11-27T22:20:08.944Z,64.32
2018-11-27T22:22:37.116Z,64.99
2018-11-27T22:25:07.022Z,63.88
2018-11-27T22:27:35.435Z,64.35
2018-11-27T22:30:03.682Z,64.40
2018-11-27T22:32:31.946Z,64.39
2018-11-27T22:35:00.173Z,64.41
2018-11-27T22:37:28.329Z,64.72
2018-11-27T22:39:56.529Z,64.89
2018-11-27T22:42:24.730Z,64.49
2018-11-27T22:44:53.094Z,64.73
2018-11-27T22:47:21.298Z,64.53
2018-11-27T22:49:49.606Z,64.08
2018-11-27T22:52:17.785Z,64.54
2018-11-27T22:54:45.995Z,64.13
2018-11-27T22:57:14.214Z,64.57
2018-11-27T22:59:42.530Z,64.50
2018-11-27T23:02:10.774Z,64.75
2018-11-27T23:04:39.043Z,64.02
2018-11-27T23:07:07.223Z,63.72
2018-11-27T23:09:35.461Z,64.59
2018-11-27T23:12:03.676Z,63.90
2018-11-27T23:14:31.906Z,64.41
2018-11-27T23:17:00.106Z,64.99
2018-11-27T23:19:28.318Z,64.00
2018-11-27T23:21:57.069Z,64.59
2018-11-27T23:24:25.253Z,64.35
2018-11-27T23:26:53.392Z,64.27
2018-11-27T23:29:21.551Z,64.13
2018-11-27T23:31:49.691Z,64.62
2018-11-27T23:34:17.881Z,64.71
2018-11-27T23:36:46.077Z,64.81
2018-11-27T23:39:14.229Z,64.52
2018-11-27T23:41:42.372Z,64.71
2018-11-27T23:44:10.531Z,64.53
2018-11-27T23:46:38.708Z,65.21
2018-11-27T23:49:06.869Z,65.24
2018-11-27T23:51:35.033Z,64.98
2018-11-27T23:54:03.188Z,64.97
2018-11-27T23:56:31.321Z,64.92
2018-11-27T23:58:59.486Z,65.31
